Aérodrome :
LOGIN :

S'inscrire | Disclaimer

   EN    FR    IT 

 










Légende :    VFR   VFR Marginal   IFR   IFR Intensif   IFR Très Intensif
Visi : 
Plafond : 
>= 8 km
>= 3000ft
5 à 8 km
1000 à 3000 ft
1500m à 5 km
500 à 1000 ft
800 à 1500m
200 à 500 ft
< 800m
< 200 ft
Symboles :   Orages  Brouillard  Fortes neiges  Fortes précipitations  Vent > 20 kt
SIGMETs :   Divers  Orages  Givrage  Turbulence  Onde Orograph.  Cendres Volcan.







- Altitude de l'aérodrome : 322 ft


LHSN - Szolnok

DERNIER METAR :
  • 160615Z 18004KT CAVOK 26/20 Q1013 NOSIG RMK BLU

METARs EXPIRÉS :
  • 160545Z 20002KT CAVOK 25/21 Q1013 NOSIG RMK BLU
  • 160515Z 17002KT CAVOK 24/22 Q1013 NOSIG RMK BLU
  • 160445Z 16004KT CAVOK 23/22 Q1012 NOSIG RMK BLU
  • 160415Z 16004KT 8000 NSC 22/22 Q1012 NOSIG RMK BLU
  • 160345Z 14004KT 8000 NSC 21/21 Q1013 NOSIG RMK BLU

TAF TAF LHSN
Valide du 16 à 06h jusqu'au 16 à 15h UTC


160515Z 1606/1615 16005KT CAVOK
BECMG 1608/1610 9999 SCT040
PROB40
TEMPO 1611/1612 VRB17G30KT 6000 SHRA TSRA SCT040CB BKN045
Pas de NOTAMs connus pour ce terrain.



MET'MAP, la Météo Aéronautique d'un coup d'oeil ! - Copyright ORBIFLY Décembre 2007 - Disclaimer

ORBIFLY MET'MAP TEAM :

Programmation & Développement : Alexandra Zaïnal
Conception & Développement : Baudouin d'Aumeries
Co-Programmation & Développement : Marc-Olivier Méhu
Soutien technique & logistique : Manuel Goepfert

Contact : metmap@orbifly.com




SOURCES & CREDITS :

   NOAA